createdAt,value
2023-04-18T00:00:39.122Z,91.02
2023-04-18T00:05:50.151Z,91.13
2023-04-18T00:10:52.827Z,91.54
2023-04-18T00:15:55.366Z,91.62
2023-04-18T00:20:57.901Z,91.91
2023-04-18T00:26:00.983Z,92.17
2023-04-18T00:31:03.627Z,92.18
2023-04-18T00:36:06.550Z,92.17
2023-04-18T00:41:09.567Z,92.16
2023-04-18T00:46:12.073Z,92.33
2023-04-18T00:51:15.370Z,92.73
2023-04-18T00:56:17.955Z,92.86
2023-04-18T01:01:20.514Z,93.15
2023-04-18T01:06:23.640Z,93.34
2023-04-18T01:11:26.136Z,93.85
2023-04-18T01:16:29.750Z,94.21
2023-04-18T01:21:36.031Z,95.61
2023-04-18T01:26:38.655Z,95.47
2023-04-18T01:31:41.341Z,95.08
2023-04-18T01:36:44.224Z,95.71
2023-04-18T01:41:47.036Z,95.96
2023-04-18T01:46:49.545Z,96.01
2023-04-18T01:51:52.134Z,95.70
2023-04-18T01:56:54.599Z,96.53
2023-04-18T02:01:58.047Z,96.23
2023-04-18T02:07:00.683Z,97.00
2023-04-18T02:12:03.281Z,97.10
2023-04-18T02:17:05.901Z,97.92
2023-04-18T02:22:08.419Z,97.60
2023-04-18T02:27:11.754Z,97.68
2023-04-18T02:32:17.225Z,97.42
2023-04-18T02:37:19.701Z,97.31
2023-04-18T02:42:22.179Z,97.66
2023-04-18T02:47:25.915Z,97.50
2023-04-18T02:52:29.133Z,97.90
2023-04-18T02:57:31.603Z,97.57
2023-04-18T03:02:34.345Z,97.38
2023-04-18T03:07:37.014Z,97.97
2023-04-18T03:12:39.752Z,98.25
2023-04-18T03:17:42.360Z,98.44
2023-04-18T03:22:44.913Z,99.07
2023-04-18T03:27:47.661Z,99.41
2023-04-18T03:32:50.158Z,98.96
2023-04-18T03:37:52.640Z,99.41
2023-04-18T03:42:55.119Z,99.17
2023-04-18T03:47:57.667Z,99.18
2023-04-18T03:53:00.862Z,99.33
2023-04-18T03:58:03.408Z,99.24
2023-04-18T04:03:07.148Z,99.10
2023-04-18T04:08:09.874Z,99.00
2023-04-18T04:13:12.338Z,98.69
2023-04-18T04:18:14.796Z,98.69
2023-04-18T04:23:17.268Z,98.31
2023-04-18T04:28:24.512Z,98.14
2023-04-18T04:33:33.097Z,97.50
2023-04-18T04:38:38.324Z,97.03
2023-04-18T04:43:41.206Z,96.21
2023-04-18T04:48:43.832Z,95.27
2023-04-18T04:53:46.811Z,93.93
2023-04-18T04:58:50.012Z,93.72
2023-04-18T05:03:53.282Z,92.89
2023-04-18T05:08:57.432Z,92.11
2023-04-18T05:13:59.860Z,91.73
2023-04-18T05:19:02.305Z,91.02
2023-04-18T05:24:04.840Z,90.43
2023-04-18T05:29:07.294Z,89.83
2023-04-18T05:34:09.850Z,89.27
2023-04-18T05:39:12.337Z,88.62
2023-04-18T05:44:16.067Z,88.12
2023-04-18T05:49:19.319Z,86.24
2023-04-18T05:54:22.063Z,84.88
2023-04-18T05:59:26.646Z,83.55
2023-04-18T06:04:29.995Z,81.44
2023-04-18T06:09:32.620Z,78.63
2023-04-18T06:14:35.317Z,78.40
2023-04-18T06:19:38.406Z,74.50
2023-04-18T06:24:41.160Z,69.29
2023-04-18T06:29:43.824Z,63.58
2023-04-18T06:34:46.345Z,59.21
2023-04-18T06:39:48.915Z,57.57
2023-04-18T06:44:51.479Z,55.18
2023-04-18T06:49:54.019Z,51.50
2023-04-18T06:54:56.694Z,47.38
2023-04-18T06:59:59.168Z,43.73
2023-04-18T07:05:01.847Z,40.06
2023-04-18T07:10:06.456Z,36.26
2023-04-18T07:15:09.723Z,36.08
2023-04-18T07:20:14.331Z,36.28
2023-04-18T07:25:17.050Z,35.61
2023-04-18T07:30:19.562Z,35.17
2023-04-18T07:35:22.132Z,34.20
2023-04-18T07:40:25.288Z,34.64
2023-04-18T07:45:27.759Z,33.78
2023-04-18T07:50:30.499Z,33.88
2023-04-18T07:55:33.159Z,35.08
2023-04-18T08:00:39.213Z,34.97
2023-04-18T08:05:42.843Z,35.68
2023-04-18T08:10:45.939Z,36.94
2023-04-18T08:15:48.558Z,37.00
2023-04-18T08:20:51.021Z,38.08
2023-04-18T08:25:53.474Z,38.44
2023-04-18T08:30:56.546Z,37.80
2023-04-18T08:35:59.150Z,37.99
2023-04-18T08:41:01.724Z,38.08
2023-04-18T08:46:04.671Z,39.31
2023-04-18T08:51:07.262Z,39.97
2023-04-18T08:56:10.694Z,39.28
2023-04-18T09:01:13.677Z,40.21
2023-04-18T09:06:19.164Z,41.11
2023-04-18T09:11:28.807Z,41.86
2023-04-18T09:16:47.073Z,41.20
2023-04-18T09:22:00.846Z,41.56
2023-04-18T10:01:30.863Z,42.03
2023-04-18T10:06:35.016Z,41.69
2023-04-18T10:11:37.989Z,42.73
2023-04-18T10:16:42.423Z,42.71
2023-04-18T10:21:54.366Z,43.05
2023-04-18T10:26:57.837Z,42.58
2023-04-18T10:32:06.047Z,43.72
2023-04-18T10:37:08.663Z,43.61
2023-04-18T10:42:11.172Z,42.62
2023-04-18T10:47:16.659Z,42.09
2023-04-18T10:52:19.229Z,42.64
2023-04-18T10:57:21.916Z,43.48
2023-04-18T11:02:33.315Z,42.95
2023-04-18T11:07:44.999Z,42.11
2023-04-18T11:12:47.970Z,42.04
2023-04-18T11:18:06.683Z,42.72
2023-04-18T11:23:18.104Z,41.52
2023-04-18T11:28:21.947Z,40.50
2023-04-18T11:33:28.218Z,40.98
2023-04-18T11:38:31.042Z,41.92
2023-04-18T11:43:33.593Z,42.41
2023-04-18T11:48:40.536Z,42.54
2023-04-18T11:53:42.978Z,42.10
2023-04-18T11:58:45.502Z,42.01
2023-04-18T12:04:16.702Z,42.13
2023-04-18T12:09:22.240Z,41.74
2023-04-18T12:14:24.861Z,41.83
2023-04-18T12:19:27.998Z,42.30
2023-04-18T12:24:32.282Z,42.40
2023-04-18T12:29:35.151Z,42.14
2023-04-18T12:34:37.628Z,41.42
2023-04-18T12:39:40.204Z,41.37
2023-04-18T12:44:42.717Z,42.25
2023-04-18T12:49:45.381Z,43.22
2023-04-18T12:54:47.903Z,43.47
2023-04-18T12:59:50.469Z,43.38
2023-04-18T13:04:52.979Z,43.84
2023-04-18T13:09:55.776Z,44.14
2023-04-18T13:14:59.513Z,43.66
2023-04-18T13:20:04.792Z,42.20
2023-04-18T13:25:10.307Z,41.48
2023-04-18T13:30:13.352Z,42.22
2023-04-18T13:35:16.243Z,44.01
2023-04-18T13:40:18.813Z,45.15
2023-04-18T13:45:21.916Z,46.11
2023-04-18T13:50:25.588Z,46.89
2023-04-18T13:55:28.836Z,48.12
2023-04-18T14:00:31.720Z,49.60
2023-04-18T14:05:35.428Z,50.92
2023-04-18T14:10:40.315Z,52.09
2023-04-18T14:15:43.425Z,52.67
2023-04-18T14:20:46.978Z,53.04
2023-04-18T14:25:49.545Z,52.86
2023-04-18T14:30:55.205Z,52.68
2023-04-18T14:35:57.749Z,51.98
2023-04-18T14:41:01.151Z,51.59
2023-04-18T14:46:03.718Z,52.71
2023-04-18T14:51:07.979Z,53.73
2023-04-18T14:56:10.528Z,54.35
2023-04-18T15:01:17.052Z,54.87
2023-04-18T15:06:19.624Z,55.49
2023-04-18T15:11:23.110Z,55.47
2023-04-18T15:16:26.547Z,55.71
2023-04-18T15:21:29.168Z,56.10
2023-04-18T15:26:33.261Z,57.14
2023-04-18T15:31:38.425Z,58.25
2023-04-18T15:36:41.650Z,58.86
2023-04-18T15:41:44.669Z,59.58
2023-04-18T15:46:48.953Z,59.99
2023-04-18T15:51:51.530Z,60.33
2023-04-18T15:56:54.000Z,60.54
2023-04-18T16:01:56.875Z,60.86
2023-04-18T16:06:59.610Z,61.08
2023-04-18T16:12:03.206Z,61.41
2023-04-18T16:17:05.961Z,61.77
2023-04-18T16:22:10.446Z,62.07
2023-04-18T16:27:13.118Z,62.34
2023-04-18T16:32:15.726Z,62.89
2023-04-18T16:37:18.495Z,63.78
2023-04-18T16:42:21.426Z,65.47
2023-04-18T16:47:24.306Z,66.90
2023-04-18T16:52:26.866Z,67.45
2023-04-18T16:57:29.433Z,68.12
2023-04-18T17:02:33.392Z,69.16
2023-04-18T17:07:36.755Z,69.66
2023-04-18T17:12:39.344Z,70.55
2023-04-18T17:17:42.071Z,71.13
2023-04-18T17:22:53.235Z,71.46
2023-04-18T17:27:57.213Z,71.14
2023-04-18T17:32:59.810Z,70.46
2023-04-18T17:38:02.574Z,70.05
2023-04-18T17:43:07.698Z,70.04
2023-04-18T17:48:10.439Z,70.00
2023-04-18T17:53:13.391Z,70.18
2023-04-18T17:58:16.860Z,70.28
2023-04-18T18:03:20.084Z,70.34
2023-04-18T18:08:23.083Z,70.45
2023-04-18T18:13:25.712Z,70.64
2023-04-18T18:18:31.463Z,70.83
2023-04-18T18:23:34.828Z,71.08
2023-04-18T18:28:38.195Z,71.34
2023-04-18T18:33:43.997Z,71.77
2023-04-18T18:38:47.119Z,72.07
2023-04-18T18:43:50.573Z,72.19
2023-04-18T18:48:53.385Z,72.40
2023-04-18T18:53:57.072Z,72.36
2023-04-18T18:58:59.551Z,72.23
2023-04-18T19:04:03.649Z,72.07
2023-04-18T19:09:07.047Z,72.00
2023-04-18T19:14:10.411Z,71.99
2023-04-18T19:19:13.593Z,71.81
2023-04-18T19:24:17.269Z,71.64
2023-04-18T19:29:22.320Z,71.90
2023-04-18T19:34:25.226Z,72.04
2023-04-18T19:39:28.079Z,71.75
2023-04-18T19:44:31.202Z,70.92
2023-04-18T19:49:34.019Z,70.35
2023-04-18T19:54:36.746Z,70.05
2023-04-18T19:59:39.223Z,69.91
2023-04-18T20:04:43.872Z,71.24
2023-04-18T20:09:48.826Z,71.89
2023-04-18T20:14:52.229Z,71.73
2023-04-18T20:19:57.074Z,71.61
2023-04-18T20:25:00.901Z,71.59
2023-04-18T20:30:05.011Z,71.60
2023-04-18T20:35:08.550Z,71.48
2023-04-18T20:40:11.500Z,71.56
2023-04-18T20:45:14.090Z,71.81
2023-04-18T20:50:18.222Z,71.81
2023-04-18T20:55:21.286Z,71.49
2023-04-18T21:00:24.095Z,71.90
2023-04-18T21:05:26.660Z,72.33
2023-04-18T21:10:29.223Z,72.50
2023-04-18T21:15:32.411Z,72.61
2023-04-18T21:20:36.539Z,72.58
2023-04-18T21:25:39.048Z,72.16
2023-04-18T21:30:41.619Z,72.16
2023-04-18T21:35:44.148Z,72.36
2023-04-18T21:40:46.618Z,72.47
2023-04-18T21:45:49.101Z,72.34
2023-04-18T21:50:57.636Z,72.21
2023-04-18T21:56:00.820Z,72.16
2023-04-18T22:01:03.513Z,71.94
2023-04-18T22:06:06.235Z,71.63
2023-04-18T22:11:12.332Z,71.84
2023-04-18T22:16:15.232Z,72.30
2023-04-18T22:21:17.835Z,72.73
2023-04-18T22:26:20.610Z,73.05
2023-04-18T22:31:23.222Z,73.27
2023-04-18T22:36:27.463Z,73.62
2023-04-18T22:41:29.973Z,73.95
2023-04-18T22:46:33.006Z,74.23
2023-04-18T22:51:35.605Z,74.60
2023-04-18T22:56:38.081Z,74.36
2023-04-18T23:01:41.350Z,74.48
2023-04-18T23:06:44.303Z,74.53
2023-04-18T23:11:46.779Z,75.11
2023-04-18T23:16:49.464Z,75.37
2023-04-18T23:21:52.882Z,75.50
2023-04-18T23:26:55.373Z,75.48
2023-04-18T23:31:57.993Z,75.21
2023-04-18T23:37:00.807Z,75.08
2023-04-18T23:42:03.307Z,75.28
2023-04-18T23:47:06.235Z,75.47
2023-04-18T23:52:08.779Z,75.69
2023-04-18T23:57:11.232Z,75.84
